sensor_id;sensor_type;location;lat;lon;timestamp;P1;durP1;ratioP1;P2;durP2;ratioP2
9260;SDS011;4667;42.726;23.252;2024-02-15T00:00:20;9.63;;;8.67;;
9260;SDS011;4667;42.726;23.252;2024-02-15T00:02:47;10.27;;;8.97;;
9260;SDS011;4667;42.726;23.252;2024-02-15T00:05:14;9.40;;;8.40;;
9260;SDS011;4667;42.726;23.252;2024-02-15T00:07:43;10.13;;;8.57;;
9260;SDS011;4667;42.726;23.252;2024-02-15T00:10:13;11.83;;;9.60;;
9260;SDS011;4667;42.726;23.252;2024-02-15T00:12:40;9.63;;;7.93;;
9260;SDS011;4667;42.726;23.252;2024-02-15T00:28:06;11.07;;;8.80;;
9260;SDS011;4667;42.726;23.252;2024-02-15T00:30:35;11.27;;;9.00;;
9260;SDS011;4667;42.726;23.252;2024-02-15T00:33:03;12.10;;;9.20;;
9260;SDS011;4667;42.726;23.252;2024-02-15T00:35:30;10.40;;;9.30;;
9260;SDS011;4667;42.726;23.252;2024-02-15T00:38:01;11.30;;;8.97;;
9260;SDS011;4667;42.726;23.252;2024-02-15T00:43:05;10.57;;;7.83;;
9260;SDS011;4667;42.726;23.252;2024-02-15T00:45:32;10.40;;;8.63;;
9260;SDS011;4667;42.726;23.252;2024-02-15T00:47:59;12.07;;;9.20;;
9260;SDS011;4667;42.726;23.252;2024-02-15T00:50:26;14.50;;;10.17;;
9260;SDS011;4667;42.726;23.252;2024-02-15T00:52:53;11.93;;;9.20;;
9260;SDS011;4667;42.726;23.252;2024-02-15T00:55:20;11.03;;;9.03;;
9260;SDS011;4667;42.726;23.252;2024-02-15T00:57:47;10.73;;;9.23;;
9260;SDS011;4667;42.726;23.252;2024-02-15T01:00:18;12.70;;;9.33;;
9260;SDS011;4667;42.726;23.252;2024-02-15T01:02:45;12.27;;;8.57;;
9260;SDS011;4667;42.726;23.252;2024-02-15T01:07:48;13.10;;;10.13;;
9260;SDS011;4667;42.726;23.252;2024-02-15T01:10:15;10.27;;;8.97;;
9260;SDS011;4667;42.726;23.252;2024-02-15T01:12:42;11.00;;;8.57;;
9260;SDS011;4667;42.726;23.252;2024-02-15T01:15:09;13.20;;;9.50;;
9260;SDS011;4667;42.726;23.252;2024-02-15T01:17:39;13.17;;;9.90;;
9260;SDS011;4667;42.726;23.252;2024-02-15T01:20:06;10.97;;;8.80;;
9260;SDS011;4667;42.726;23.252;2024-02-15T01:22:33;12.37;;;8.97;;
9260;SDS011;4667;42.726;23.252;2024-02-15T01:25:00;9.20;;;8.17;;
9260;SDS011;4667;42.726;23.252;2024-02-15T01:27:29;11.23;;;8.90;;
9260;SDS011;4667;42.726;23.252;2024-02-15T01:29:56;10.67;;;8.60;;
9260;SDS011;4667;42.726;23.252;2024-02-15T01:32:23;10.00;;;8.67;;
9260;SDS011;4667;42.726;23.252;2024-02-15T01:34:53;11.17;;;9.57;;
9260;SDS011;4667;42.726;23.252;2024-02-15T01:37:20;10.73;;;8.73;;
9260;SDS011;4667;42.726;23.252;2024-02-15T01:39:50;9.73;;;8.73;;
9260;SDS011;4667;42.726;23.252;2024-02-15T01:42:18;10.27;;;8.70;;
9260;SDS011;4667;42.726;23.252;2024-02-15T01:44:49;11.30;;;9.13;;
9260;SDS011;4667;42.726;23.252;2024-02-15T01:47:19;13.80;;;8.80;;
9260;SDS011;4667;42.726;23.252;2024-02-15T01:49:55;10.63;;;8.73;;
9260;SDS011;4667;42.726;23.252;2024-02-15T01:52:24;9.63;;;8.53;;
9260;SDS011;4667;42.726;23.252;2024-02-15T01:54:51;13.37;;;9.80;;
9260;SDS011;4667;42.726;23.252;2024-02-15T01:57:20;11.70;;;9.67;;
9260;SDS011;4667;42.726;23.252;2024-02-15T01:59:53;11.10;;;8.83;;
9260;SDS011;4667;42.726;23.252;2024-02-15T02:02:20;12.50;;;9.57;;
9260;SDS011;4667;42.726;23.252;2024-02-15T02:04:51;14.00;;;10.10;;
9260;SDS011;4667;42.726;23.252;2024-02-15T02:07:20;13.50;;;9.47;;
9260;SDS011;4667;42.726;23.252;2024-02-15T02:09:47;13.40;;;9.40;;
9260;SDS011;4667;42.726;23.252;2024-02-15T02:12:16;13.50;;;9.73;;
9260;SDS011;4667;42.726;23.252;2024-02-15T02:14:44;11.00;;;9.40;;
9260;SDS011;4667;42.726;23.252;2024-02-15T02:17:11;13.20;;;10.03;;
9260;SDS011;4667;42.726;23.252;2024-02-15T02:19:40;11.63;;;9.17;;
9260;SDS011;4667;42.726;23.252;2024-02-15T02:22:09;12.30;;;9.80;;
9260;SDS011;4667;42.726;23.252;2024-02-15T02:27:26;11.97;;;9.97;;
9260;SDS011;4667;42.726;23.252;2024-02-15T02:29:54;12.67;;;9.70;;
9260;SDS011;4667;42.726;23.252;2024-02-15T02:32:22;12.70;;;10.20;;
9260;SDS011;4667;42.726;23.252;2024-02-15T02:34:50;15.43;;;10.83;;
9260;SDS011;4667;42.726;23.252;2024-02-15T02:37:33;15.90;;;10.53;;
9260;SDS011;4667;42.726;23.252;2024-02-15T02:43:27;12.33;;;9.87;;
9260;SDS011;4667;42.726;23.252;2024-02-15T02:45:54;12.83;;;10.00;;
9260;SDS011;4667;42.726;23.252;2024-02-15T02:48:50;13.43;;;10.50;;
9260;SDS011;4667;42.726;23.252;2024-02-15T02:51:46;15.27;;;10.30;;
9260;SDS011;4667;42.726;23.252;2024-02-15T02:54:33;12.87;;;10.60;;
9260;SDS011;4667;42.726;23.252;2024-02-15T02:58:05;13.07;;;10.17;;
9260;SDS011;4667;42.726;23.252;2024-02-15T03:00:35;15.70;;;11.13;;
9260;SDS011;4667;42.726;23.252;2024-02-15T03:03:05;14.63;;;11.37;;
9260;SDS011;4667;42.726;23.252;2024-02-15T03:05:47;13.20;;;10.33;;
9260;SDS011;4667;42.726;23.252;2024-02-15T03:09:07;14.27;;;10.43;;
9260;SDS011;4667;42.726;23.252;2024-02-15T03:11:41;11.97;;;9.63;;
9260;SDS011;4667;42.726;23.252;2024-02-15T03:29:03;12.47;;;9.47;;
9260;SDS011;4667;42.726;23.252;2024-02-15T03:31:49;14.00;;;11.13;;
9260;SDS011;4667;42.726;23.252;2024-02-15T03:35:03;14.97;;;10.27;;
9260;SDS011;4667;42.726;23.252;2024-02-15T03:46:40;13.10;;;10.90;;
9260;SDS011;4667;42.726;23.252;2024-02-15T03:49:26;16.43;;;11.70;;
9260;SDS011;4667;42.726;23.252;2024-02-15T03:52:40;15.77;;;10.93;;
9260;SDS011;4667;42.726;23.252;2024-02-15T03:55:30;19.83;;;10.73;;
9260;SDS011;4667;42.726;23.252;2024-02-15T03:58:41;14.70;;;11.10;;
9260;SDS011;4667;42.726;23.252;2024-02-15T04:01:12;14.50;;;10.93;;
9260;SDS011;4667;42.726;23.252;2024-02-15T04:07:17;18.33;;;11.97;;
9260;SDS011;4667;42.726;23.252;2024-02-15T04:10:03;17.73;;;12.17;;
9260;SDS011;4667;42.726;23.252;2024-02-15T04:12:43;14.77;;;11.40;;
9260;SDS011;4667;42.726;23.252;2024-02-15T04:15:25;15.10;;;11.57;;
9260;SDS011;4667;42.726;23.252;2024-02-15T04:17:55;16.53;;;12.17;;
9260;SDS011;4667;42.726;23.252;2024-02-15T04:21:14;19.23;;;12.23;;
9260;SDS011;4667;42.726;23.252;2024-02-15T04:24:10;15.27;;;11.70;;
9260;SDS011;4667;42.726;23.252;2024-02-15T04:26:52;20.67;;;12.60;;
9260;SDS011;4667;42.726;23.252;2024-02-15T04:35:51;12.10;;;9.87;;
9260;SDS011;4667;42.726;23.252;2024-02-15T04:38:19;12.97;;;10.93;;
9260;SDS011;4667;42.726;23.252;2024-02-15T04:40:57;15.83;;;11.80;;
9260;SDS011;4667;42.726;23.252;2024-02-15T04:43:26;15.70;;;11.77;;
9260;SDS011;4667;42.726;23.252;2024-02-15T04:45:56;19.57;;;12.93;;
9260;SDS011;4667;42.726;23.252;2024-02-15T04:48:28;18.10;;;13.73;;
9260;SDS011;4667;42.726;23.252;2024-02-15T04:51:12;16.80;;;12.17;;
9260;SDS011;4667;42.726;23.252;2024-02-15T04:54:07;19.07;;;12.60;;
9260;SDS011;4667;42.726;23.252;2024-02-15T04:56:52;19.00;;;12.33;;
9260;SDS011;4667;42.726;23.252;2024-02-15T04:59:36;17.13;;;11.53;;
9260;SDS011;4667;42.726;23.252;2024-02-15T05:02:12;13.80;;;11.40;;
9260;SDS011;4667;42.726;23.252;2024-02-15T05:04:55;16.97;;;12.00;;
9260;SDS011;4667;42.726;23.252;2024-02-15T05:07:38;17.90;;;13.33;;
9260;SDS011;4667;42.726;23.252;2024-02-15T05:10:20;15.70;;;11.60;;
9260;SDS011;4667;42.726;23.252;2024-02-15T05:12:52;16.90;;;12.10;;
9260;SDS011;4667;42.726;23.252;2024-02-15T05:15:28;17.23;;;11.90;;
9260;SDS011;4667;42.726;23.252;2024-02-15T05:17:56;16.17;;;12.10;;
9260;SDS011;4667;42.726;23.252;2024-02-15T05:20:27;17.10;;;12.00;;
9260;SDS011;4667;42.726;23.252;2024-02-15T05:34:14;18.87;;;10.60;;
9260;SDS011;4667;42.726;23.252;2024-02-15T05:36:41;15.43;;;11.60;;
9260;SDS011;4667;42.726;23.252;2024-02-15T05:39:08;20.10;;;12.67;;
9260;SDS011;4667;42.726;23.252;2024-02-15T05:41:39;21.97;;;12.40;;
9260;SDS011;4667;42.726;23.252;2024-02-15T05:44:06;17.20;;;12.10;;
9260;SDS011;4667;42.726;23.252;2024-02-15T05:46:34;18.67;;;12.10;;
9260;SDS011;4667;42.726;23.252;2024-02-15T05:49:03;17.37;;;11.93;;
9260;SDS011;4667;42.726;23.252;2024-02-15T05:51:32;15.47;;;12.40;;
9260;SDS011;4667;42.726;23.252;2024-02-15T05:53:59;16.33;;;11.83;;
9260;SDS011;4667;42.726;23.252;2024-02-15T05:56:26;16.13;;;10.50;;
9260;SDS011;4667;42.726;23.252;2024-02-15T05:58:54;20.23;;;12.07;;
9260;SDS011;4667;42.726;23.252;2024-02-15T06:01:21;19.03;;;11.03;;
9260;SDS011;4667;42.726;23.252;2024-02-15T06:03:49;14.47;;;10.93;;
9260;SDS011;4667;42.726;23.252;2024-02-15T06:06:20;20.57;;;11.80;;
9260;SDS011;4667;42.726;23.252;2024-02-15T06:08:49;20.50;;;11.40;;
9260;SDS011;4667;42.726;23.252;2024-02-15T06:11:19;15.67;;;11.90;;
9260;SDS011;4667;42.726;23.252;2024-02-15T06:13:47;15.30;;;12.00;;
9260;SDS011;4667;42.726;23.252;2024-02-15T06:16:14;15.17;;;10.87;;
9260;SDS011;4667;42.726;23.252;2024-02-15T06:18:42;16.40;;;11.33;;
9260;SDS011;4667;42.726;23.252;2024-02-15T06:21:13;17.07;;;11.87;;
9260;SDS011;4667;42.726;23.252;2024-02-15T06:23:40;17.13;;;11.03;;
9260;SDS011;4667;42.726;23.252;2024-02-15T06:26:11;14.63;;;11.43;;
9260;SDS011;4667;42.726;23.252;2024-02-15T06:28:39;12.70;;;10.00;;
9260;SDS011;4667;42.726;23.252;2024-02-15T06:31:31;18.23;;;11.70;;
9260;SDS011;4667;42.726;23.252;2024-02-15T06:34:16;14.17;;;10.23;;
9260;SDS011;4667;42.726;23.252;2024-02-15T06:37:00;18.33;;;10.77;;
9260;SDS011;4667;42.726;23.252;2024-02-15T06:39:45;18.37;;;11.97;;
9260;SDS011;4667;42.726;23.252;2024-02-15T06:42:16;18.67;;;13.20;;
9260;SDS011;4667;42.726;23.252;2024-02-15T06:44:45;17.13;;;12.27;;
9260;SDS011;4667;42.726;23.252;2024-02-15T06:47:13;20.43;;;12.23;;
9260;SDS011;4667;42.726;23.252;2024-02-15T06:49:43;17.67;;;11.57;;
9260;SDS011;4667;42.726;23.252;2024-02-15T06:52:17;19.27;;;12.23;;
9260;SDS011;4667;42.726;23.252;2024-02-15T06:54:45;16.83;;;12.70;;
9260;SDS011;4667;42.726;23.252;2024-02-15T06:57:15;15.90;;;11.60;;
9260;SDS011;4667;42.726;23.252;2024-02-15T06:59:45;14.07;;;10.57;;
9260;SDS011;4667;42.726;23.252;2024-02-15T07:02:19;14.13;;;10.90;;
9260;SDS011;4667;42.726;23.252;2024-02-15T07:04:48;16.80;;;12.13;;
9260;SDS011;4667;42.726;23.252;2024-02-15T07:07:17;19.07;;;12.87;;
9260;SDS011;4667;42.726;23.252;2024-02-15T07:09:44;19.80;;;13.03;;
9260;SDS011;4667;42.726;23.252;2024-02-15T07:12:11;23.23;;;15.03;;
9260;SDS011;4667;42.726;23.252;2024-02-15T07:14:40;16.07;;;11.80;;
9260;SDS011;4667;42.726;23.252;2024-02-15T07:17:08;17.93;;;12.17;;
9260;SDS011;4667;42.726;23.252;2024-02-15T07:19:36;14.70;;;11.07;;
9260;SDS011;4667;42.726;23.252;2024-02-15T07:22:03;17.00;;;11.30;;
9260;SDS011;4667;42.726;23.252;2024-02-15T07:24:30;15.20;;;11.83;;
9260;SDS011;4667;42.726;23.252;2024-02-15T07:26:57;16.33;;;11.63;;
9260;SDS011;4667;42.726;23.252;2024-02-15T07:29:24;15.07;;;10.87;;
9260;SDS011;4667;42.726;23.252;2024-02-15T07:31:56;16.20;;;10.63;;
9260;SDS011;4667;42.726;23.252;2024-02-15T07:34:27;15.73;;;11.17;;
9260;SDS011;4667;42.726;23.252;2024-02-15T07:36:54;15.37;;;10.17;;
9260;SDS011;4667;42.726;23.252;2024-02-15T07:39:23;13.63;;;10.83;;
9260;SDS011;4667;42.726;23.252;2024-02-15T07:41:51;13.97;;;10.93;;
9260;SDS011;4667;42.726;23.252;2024-02-15T07:44:19;15.53;;;10.73;;
9260;SDS011;4667;42.726;23.252;2024-02-15T07:46:47;13.43;;;9.77;;
9260;SDS011;4667;42.726;23.252;2024-02-15T07:49:17;13.20;;;9.90;;
9260;SDS011;4667;42.726;23.252;2024-02-15T07:51:44;12.23;;;9.67;;
9260;SDS011;4667;42.726;23.252;2024-02-15T07:54:12;10.83;;;9.03;;
9260;SDS011;4667;42.726;23.252;2024-02-15T07:56:40;12.40;;;9.67;;
9260;SDS011;4667;42.726;23.252;2024-02-15T07:59:06;13.30;;;9.43;;
9260;SDS011;4667;42.726;23.252;2024-02-15T08:01:33;11.53;;;9.53;;
9260;SDS011;4667;42.726;23.252;2024-02-15T08:04:00;12.00;;;10.00;;
9260;SDS011;4667;42.726;23.252;2024-02-15T08:06:31;14.07;;;9.93;;
9260;SDS011;4667;42.726;23.252;2024-02-15T08:08:58;11.37;;;9.00;;
9260;SDS011;4667;42.726;23.252;2024-02-15T08:11:25;13.20;;;9.83;;
9260;SDS011;4667;42.726;23.252;2024-02-15T08:13:52;12.87;;;9.40;;
9260;SDS011;4667;42.726;23.252;2024-02-15T08:16:24;12.50;;;9.53;;
9260;SDS011;4667;42.726;23.252;2024-02-15T08:18:54;12.40;;;8.20;;
9260;SDS011;4667;42.726;23.252;2024-02-15T08:21:25;11.33;;;8.90;;
9260;SDS011;4667;42.726;23.252;2024-02-15T08:23:56;11.40;;;9.37;;
9260;SDS011;4667;42.726;23.252;2024-02-15T08:26:23;14.97;;;10.10;;
9260;SDS011;4667;42.726;23.252;2024-02-15T08:28:50;11.53;;;9.33;;
9260;SDS011;4667;42.726;23.252;2024-02-15T08:31:17;10.53;;;8.57;;
9260;SDS011;4667;42.726;23.252;2024-02-15T08:33:44;10.33;;;8.73;;
9260;SDS011;4667;42.726;23.252;2024-02-15T08:36:11;10.70;;;8.40;;
9260;SDS011;4667;42.726;23.252;2024-02-15T08:38:39;12.80;;;9.03;;
9260;SDS011;4667;42.726;23.252;2024-02-15T08:41:07;13.80;;;8.43;;
9260;SDS011;4667;42.726;23.252;2024-02-15T08:43:36;13.03;;;9.53;;
9260;SDS011;4667;42.726;23.252;2024-02-15T08:46:05;12.80;;;8.20;;
9260;SDS011;4667;42.726;23.252;2024-02-15T08:48:32;11.63;;;8.63;;
9260;SDS011;4667;42.726;23.252;2024-02-15T08:51:00;14.60;;;9.57;;
9260;SDS011;4667;42.726;23.252;2024-02-15T08:53:27;13.63;;;9.90;;
9260;SDS011;4667;42.726;23.252;2024-02-15T08:55:54;11.80;;;9.13;;
9260;SDS011;4667;42.726;23.252;2024-02-15T08:58:22;15.53;;;9.37;;
9260;SDS011;4667;42.726;23.252;2024-02-15T09:00:49;11.63;;;9.20;;
9260;SDS011;4667;42.726;23.252;2024-02-15T09:03:16;9.57;;;8.30;;
9260;SDS011;4667;42.726;23.252;2024-02-15T09:05:43;10.57;;;7.93;;
9260;SDS011;4667;42.726;23.252;2024-02-15T09:08:10;10.30;;;8.43;;
9260;SDS011;4667;42.726;23.252;2024-02-15T09:10:37;12.27;;;8.77;;
9260;SDS011;4667;42.726;23.252;2024-02-15T09:13:04;8.90;;;7.83;;
9260;SDS011;4667;42.726;23.252;2024-02-15T09:15:35;10.00;;;8.10;;
9260;SDS011;4667;42.726;23.252;2024-02-15T09:18:04;11.20;;;7.77;;
9260;SDS011;4667;42.726;23.252;2024-02-15T09:20:35;10.70;;;8.10;;
9260;SDS011;4667;42.726;23.252;2024-02-15T09:23:05;13.03;;;7.80;;
9260;SDS011;4667;42.726;23.252;2024-02-15T09:25:37;11.77;;;8.27;;
9260;SDS011;4667;42.726;23.252;2024-02-15T09:28:08;8.97;;;7.37;;
9260;SDS011;4667;42.726;23.252;2024-02-15T09:30:36;11.23;;;7.63;;
9260;SDS011;4667;42.726;23.252;2024-02-15T09:33:03;10.47;;;7.47;;
9260;SDS011;4667;42.726;23.252;2024-02-15T09:35:34;10.57;;;8.47;;
9260;SDS011;4667;42.726;23.252;2024-02-15T09:38:03;10.17;;;8.23;;
9260;SDS011;4667;42.726;23.252;2024-02-15T09:40:31;9.30;;;7.23;;
9260;SDS011;4667;42.726;23.252;2024-02-15T09:42:59;9.13;;;7.33;;
9260;SDS011;4667;42.726;23.252;2024-02-15T09:45:26;9.37;;;7.77;;
9260;SDS011;4667;42.726;23.252;2024-02-15T09:47:55;11.87;;;8.13;;
9260;SDS011;4667;42.726;23.252;2024-02-15T09:50:29;11.33;;;8.03;;
9260;SDS011;4667;42.726;23.252;2024-02-15T09:53:00;8.07;;;7.17;;
9260;SDS011;4667;42.726;23.252;2024-02-15T09:55:28;12.57;;;8.27;;
9260;SDS011;4667;42.726;23.252;2024-02-15T09:57:55;10.90;;;8.50;;
9260;SDS011;4667;42.726;23.252;2024-02-15T10:00:23;14.23;;;8.85;;
9260;SDS011;4667;42.726;23.252;2024-02-15T10:02:50;11.95;;;8.38;;
9260;SDS011;4667;42.726;23.252;2024-02-15T10:05:21;11.63;;;7.18;;
9260;SDS011;4667;42.726;23.252;2024-02-15T10:07:49;9.65;;;7.35;;
9260;SDS011;4667;42.726;23.252;2024-02-15T10:10:16;9.20;;;6.20;;
9260;SDS011;4667;42.726;23.252;2024-02-15T10:12:45;10.83;;;6.70;;
9260;SDS011;4667;42.726;23.252;2024-02-15T10:15:26;10.53;;;7.60;;
9260;SDS011;4667;42.726;23.252;2024-02-15T10:17:54;8.77;;;6.80;;
9260;SDS011;4667;42.726;23.252;2024-02-15T10:20:23;9.67;;;6.70;;
9260;SDS011;4667;42.726;23.252;2024-02-15T10:22:52;11.10;;;6.97;;
9260;SDS011;4667;42.726;23.252;2024-02-15T10:25:20;8.33;;;7.00;;
9260;SDS011;4667;42.726;23.252;2024-02-15T10:27:48;11.97;;;7.07;;
9260;SDS011;4667;42.726;23.252;2024-02-15T10:30:16;10.45;;;7.68;;
9260;SDS011;4667;42.726;23.252;2024-02-15T10:32:44;9.73;;;7.13;;
9260;SDS011;4667;42.726;23.252;2024-02-15T10:35:18;8.98;;;6.68;;
9260;SDS011;4667;42.726;23.252;2024-02-15T10:37:48;12.23;;;6.30;;
9260;SDS011;4667;42.726;23.252;2024-02-15T10:40:19;10.80;;;6.80;;
9260;SDS011;4667;42.726;23.252;2024-02-15T10:42:47;7.72;;;5.60;;
9260;SDS011;4667;42.726;23.252;2024-02-15T10:45:14;8.65;;;6.13;;
9260;SDS011;4667;42.726;23.252;2024-02-15T10:47:43;9.27;;;6.63;;
9260;SDS011;4667;42.726;23.252;2024-02-15T10:50:12;9.63;;;6.38;;
9260;SDS011;4667;42.726;23.252;2024-02-15T10:52:41;10.32;;;6.78;;
9260;SDS011;4667;42.726;23.252;2024-02-15T10:55:17;7.15;;;6.45;;
9260;SDS011;4667;42.726;23.252;2024-02-15T10:57:49;7.65;;;5.97;;
9260;SDS011;4667;42.726;23.252;2024-02-15T11:00:19;6.65;;;6.00;;
9260;SDS011;4667;42.726;23.252;2024-02-15T11:02:59;8.90;;;5.60;;
9260;SDS011;4667;42.726;23.252;2024-02-15T11:05:31;9.00;;;6.57;;
9260;SDS011;4667;42.726;23.252;2024-02-15T11:08:02;8.52;;;6.38;;
9260;SDS011;4667;42.726;23.252;2024-02-15T11:10:33;9.20;;;6.20;;
9260;SDS011;4667;42.726;23.252;2024-02-15T11:13:03;8.27;;;6.13;;
9260;SDS011;4667;42.726;23.252;2024-02-15T11:15:40;7.57;;;6.38;;
9260;SDS011;4667;42.726;23.252;2024-02-15T11:18:25;10.60;;;6.63;;
9260;SDS011;4667;42.726;23.252;2024-02-15T11:21:09;8.05;;;6.47;;
9260;SDS011;4667;42.726;23.252;2024-02-15T11:23:36;7.95;;;6.60;;
9260;SDS011;4667;42.726;23.252;2024-02-15T11:26:05;8.57;;;6.55;;
9260;SDS011;4667;42.726;23.252;2024-02-15T11:28:42;6.93;;;6.07;;
9260;SDS011;4667;42.726;23.252;2024-02-15T11:40:13;8.57;;;6.85;;
9260;SDS011;4667;42.726;23.252;2024-02-15T11:42:43;6.35;;;5.72;;
9260;SDS011;4667;42.726;23.252;2024-02-15T11:45:11;10.98;;;7.43;;
9260;SDS011;4667;42.726;23.252;2024-02-15T11:47:39;7.22;;;6.10;;
9260;SDS011;4667;42.726;23.252;2024-02-15T11:50:08;7.93;;;6.50;;
9260;SDS011;4667;42.726;23.252;2024-02-15T11:52:39;7.18;;;5.28;;
9260;SDS011;4667;42.726;23.252;2024-02-15T11:55:07;6.75;;;5.30;;
9260;SDS011;4667;42.726;23.252;2024-02-15T11:57:38;7.35;;;6.15;;
9260;SDS011;4667;42.726;23.252;2024-02-15T12:00:23;10.55;;;6.65;;
9260;SDS011;4667;42.726;23.252;2024-02-15T12:03:08;7.88;;;6.60;;
9260;SDS011;4667;42.726;23.252;2024-02-15T12:05:54;8.18;;;5.90;;
9260;SDS011;4667;42.726;23.252;2024-02-15T12:08:38;11.43;;;6.15;;
9260;SDS011;4667;42.726;23.252;2024-02-15T12:11:23;8.45;;;5.90;;
9260;SDS011;4667;42.726;23.252;2024-02-15T12:14:11;6.95;;;5.75;;
9260;SDS011;4667;42.726;23.252;2024-02-15T12:17:04;8.27;;;5.93;;
9260;SDS011;4667;42.726;23.252;2024-02-15T12:19:49;7.38;;;6.30;;
9260;SDS011;4667;42.726;23.252;2024-02-15T12:22:20;9.20;;;7.03;;
9260;SDS011;4667;42.726;23.252;2024-02-15T12:24:58;6.77;;;5.80;;
9260;SDS011;4667;42.726;23.252;2024-02-15T12:27:26;10.20;;;6.40;;
9260;SDS011;4667;42.726;23.252;2024-02-15T12:29:54;10.43;;;6.73;;
9260;SDS011;4667;42.726;23.252;2024-02-15T12:32:24;8.30;;;6.63;;
9260;SDS011;4667;42.726;23.252;2024-02-15T12:34:52;7.50;;;5.97;;
9260;SDS011;4667;42.726;23.252;2024-02-15T12:37:20;9.43;;;6.20;;
9260;SDS011;4667;42.726;23.252;2024-02-15T12:39:49;10.17;;;6.93;;
9260;SDS011;4667;42.726;23.252;2024-02-15T12:42:16;6.87;;;6.00;;
9260;SDS011;4667;42.726;23.252;2024-02-15T12:44:45;15.03;;;6.47;;
9260;SDS011;4667;42.726;23.252;2024-02-15T12:47:17;9.82;;;6.70;;
9260;SDS011;4667;42.726;23.252;2024-02-15T12:49:49;8.73;;;6.10;;
9260;SDS011;4667;42.726;23.252;2024-02-15T12:52:32;8.07;;;6.10;;
9260;SDS011;4667;42.726;23.252;2024-02-15T12:57:43;8.03;;;6.40;;
9260;SDS011;4667;42.726;23.252;2024-02-15T13:00:17;6.80;;;5.10;;
9260;SDS011;4667;42.726;23.252;2024-02-15T13:02:46;8.10;;;6.27;;
9260;SDS011;4667;42.726;23.252;2024-02-15T13:05:15;9.63;;;5.80;;
9260;SDS011;4667;42.726;23.252;2024-02-15T13:07:43;11.17;;;5.70;;
9260;SDS011;4667;42.726;23.252;2024-02-15T13:10:10;6.97;;;5.67;;
9260;SDS011;4667;42.726;23.252;2024-02-15T13:12:40;9.53;;;5.17;;
9260;SDS011;4667;42.726;23.252;2024-02-15T13:15:08;6.03;;;5.43;;
9260;SDS011;4667;42.726;23.252;2024-02-15T13:17:39;7.63;;;5.93;;
9260;SDS011;4667;42.726;23.252;2024-02-15T13:20:07;6.97;;;5.47;;
9260;SDS011;4667;42.726;23.252;2024-02-15T13:22:39;6.63;;;5.80;;
9260;SDS011;4667;42.726;23.252;2024-02-15T13:25:08;6.67;;;5.97;;
9260;SDS011;4667;42.726;23.252;2024-02-15T13:27:36;9.83;;;5.90;;
9260;SDS011;4667;42.726;23.252;2024-02-15T13:30:04;6.80;;;5.97;;
9260;SDS011;4667;42.726;23.252;2024-02-15T13:32:35;9.77;;;5.60;;
9260;SDS011;4667;42.726;23.252;2024-02-15T13:35:03;5.63;;;5.00;;
9260;SDS011;4667;42.726;23.252;2024-02-15T13:37:39;6.90;;;5.23;;
9260;SDS011;4667;42.726;23.252;2024-02-15T13:40:09;8.40;;;5.60;;
9260;SDS011;4667;42.726;23.252;2024-02-15T13:42:40;7.70;;;5.80;;
9260;SDS011;4667;42.726;23.252;2024-02-15T13:45:12;7.40;;;6.00;;
9260;SDS011;4667;42.726;23.252;2024-02-15T13:47:39;6.53;;;5.40;;
9260;SDS011;4667;42.726;23.252;2024-02-15T13:50:07;9.43;;;5.43;;
9260;SDS011;4667;42.726;23.252;2024-02-15T13:52:35;11.63;;;6.03;;
9260;SDS011;4667;42.726;23.252;2024-02-15T13:55:04;9.20;;;5.87;;
9260;SDS011;4667;42.726;23.252;2024-02-15T13:57:31;8.57;;;5.90;;
9260;SDS011;4667;42.726;23.252;2024-02-15T13:59:58;6.30;;;5.00;;
9260;SDS011;4667;42.726;23.252;2024-02-15T14:02:25;8.67;;;6.03;;
9260;SDS011;4667;42.726;23.252;2024-02-15T14:04:52;6.57;;;5.90;;
9260;SDS011;4667;42.726;23.252;2024-02-15T14:07:18;8.70;;;6.10;;
9260;SDS011;4667;42.726;23.252;2024-02-15T14:09:45;7.53;;;5.57;;
9260;SDS011;4667;42.726;23.252;2024-02-15T14:12:14;7.63;;;5.97;;
9260;SDS011;4667;42.726;23.252;2024-02-15T14:14:41;11.10;;;6.17;;
9260;SDS011;4667;42.726;23.252;2024-02-15T14:17:08;9.53;;;5.87;;
9260;SDS011;4667;42.726;23.252;2024-02-15T14:19:35;11.53;;;5.77;;
9260;SDS011;4667;42.726;23.252;2024-02-15T14:22:02;8.43;;;6.33;;
9260;SDS011;4667;42.726;23.252;2024-02-15T14:24:34;8.73;;;6.07;;
9260;SDS011;4667;42.726;23.252;2024-02-15T14:27:02;7.33;;;5.47;;
9260;SDS011;4667;42.726;23.252;2024-02-15T14:29:30;8.20;;;6.10;;
9260;SDS011;4667;42.726;23.252;2024-02-15T14:32:02;10.20;;;6.30;;
9260;SDS011;4667;42.726;23.252;2024-02-15T14:34:49;9.17;;;7.13;;
9260;SDS011;4667;42.726;23.252;2024-02-15T14:37:16;8.97;;;6.50;;
9260;SDS011;4667;42.726;23.252;2024-02-15T14:39:44;9.50;;;6.67;;
9260;SDS011;4667;42.726;23.252;2024-02-15T14:42:11;10.53;;;6.40;;
9260;SDS011;4667;42.726;23.252;2024-02-15T14:44:41;8.70;;;7.10;;
9260;SDS011;4667;42.726;23.252;2024-02-15T14:47:08;13.33;;;7.03;;
9260;SDS011;4667;42.726;23.252;2024-02-15T14:49:35;12.10;;;6.87;;
9260;SDS011;4667;42.726;23.252;2024-02-15T14:52:02;7.27;;;5.83;;
9260;SDS011;4667;42.726;23.252;2024-02-15T14:54:29;9.30;;;6.33;;
9260;SDS011;4667;42.726;23.252;2024-02-15T14:56:58;8.23;;;6.10;;
9260;SDS011;4667;42.726;23.252;2024-02-15T14:59:28;8.00;;;5.53;;
9260;SDS011;4667;42.726;23.252;2024-02-15T15:01:58;7.80;;;5.40;;
9260;SDS011;4667;42.726;23.252;2024-02-15T15:04:36;6.90;;;5.90;;
9260;SDS011;4667;42.726;23.252;2024-02-15T15:07:32;7.03;;;6.43;;
9260;SDS011;4667;42.726;23.252;2024-02-15T15:10:20;6.27;;;5.63;;
9260;SDS011;4667;42.726;23.252;2024-02-15T15:13:08;7.40;;;5.80;;
9260;SDS011;4667;42.726;23.252;2024-02-15T15:15:48;8.30;;;6.07;;
9260;SDS011;4667;42.726;23.252;2024-02-15T15:18:23;8.93;;;6.37;;
9260;SDS011;4667;42.726;23.252;2024-02-15T15:20:53;7.37;;;5.27;;
9260;SDS011;4667;42.726;23.252;2024-02-15T15:23:24;8.73;;;5.70;;
9260;SDS011;4667;42.726;23.252;2024-02-15T15:26:24;7.67;;;5.97;;
9260;SDS011;4667;42.726;23.252;2024-02-15T15:29:19;5.93;;;4.90;;
9260;SDS011;4667;42.726;23.252;2024-02-15T15:31:49;7.50;;;5.23;;
9260;SDS011;4667;42.726;23.252;2024-02-15T15:34:18;7.37;;;4.37;;
9260;SDS011;4667;42.726;23.252;2024-02-15T15:36:48;8.57;;;4.93;;
9260;SDS011;4667;42.726;23.252;2024-02-15T15:39:17;27.60;;;6.60;;
9260;SDS011;4667;42.726;23.252;2024-02-15T15:41:54;14.17;;;5.57;;
9260;SDS011;4667;42.726;23.252;2024-02-15T15:44:21;13.93;;;5.47;;
9260;SDS011;4667;42.726;23.252;2024-02-15T15:46:52;9.73;;;5.60;;
9260;SDS011;4667;42.726;23.252;2024-02-15T15:49:38;9.57;;;5.37;;
9260;SDS011;4667;42.726;23.252;2024-02-15T15:52:07;12.00;;;5.80;;
9260;SDS011;4667;42.726;23.252;2024-02-15T15:54:41;17.07;;;5.37;;
9260;SDS011;4667;42.726;23.252;2024-02-15T15:57:10;11.90;;;5.90;;
9260;SDS011;4667;42.726;23.252;2024-02-15T15:59:56;19.37;;;6.23;;
9260;SDS011;4667;42.726;23.252;2024-02-15T16:02:40;26.40;;;8.83;;
9260;SDS011;4667;42.726;23.252;2024-02-15T16:05:40;12.57;;;6.93;;
9260;SDS011;4667;42.726;23.252;2024-02-15T16:08:23;8.33;;;7.37;;
9260;SDS011;4667;42.726;23.252;2024-02-15T16:10:56;8.63;;;6.87;;
9260;SDS011;4667;42.726;23.252;2024-02-15T16:13:54;12.23;;;6.47;;
9260;SDS011;4667;42.726;23.252;2024-02-15T16:16:27;11.33;;;6.40;;
9260;SDS011;4667;42.726;23.252;2024-02-15T16:19:07;8.23;;;6.47;;
9260;SDS011;4667;42.726;23.252;2024-02-15T16:21:40;9.23;;;6.20;;
9260;SDS011;4667;42.726;23.252;2024-02-15T16:24:35;9.73;;;6.80;;
9260;SDS011;4667;42.726;23.252;2024-02-15T16:27:03;8.33;;;7.03;;
9260;SDS011;4667;42.726;23.252;2024-02-15T16:29:31;11.37;;;8.30;;
9260;SDS011;4667;42.726;23.252;2024-02-15T16:31:58;11.83;;;8.40;;
9260;SDS011;4667;42.726;23.252;2024-02-15T16:34:27;12.73;;;8.17;;
9260;SDS011;4667;42.726;23.252;2024-02-15T16:36:55;9.37;;;7.10;;
9260;SDS011;4667;42.726;23.252;2024-02-15T16:39:23;14.13;;;7.37;;